sensor_id;sensor_type;location;lat;lon;timestamp;temperature;humidity
59999;DHT22;45859;51.378;6.736;2023-02-01T00:01:59;6.20;99.90
59999;DHT22;45859;51.378;6.736;2023-02-01T00:04:25;6.20;99.90
59999;DHT22;45859;51.378;6.736;2023-02-01T00:06:51;6.20;99.90
59999;DHT22;45859;51.378;6.736;2023-02-01T00:09:17;6.20;99.90
59999;DHT22;45859;51.378;6.736;2023-02-01T00:11:43;6.20;99.90
59999;DHT22;45859;51.378;6.736;2023-02-01T00:14:09;6.20;99.90
59999;DHT22;45859;51.378;6.736;2023-02-01T00:16:35;6.20;99.90
59999;DHT22;45859;51.378;6.736;2023-02-01T00:19:07;6.20;99.90
59999;DHT22;45859;51.378;6.736;2023-02-01T00:21:34;6.20;99.90
59999;DHT22;45859;51.378;6.736;2023-02-01T00:24:00;6.30;99.90
59999;DHT22;45859;51.378;6.736;2023-02-01T00:26:36;6.30;99.90
59999;DHT22;45859;51.378;6.736;2023-02-01T00:29:04;6.30;99.90
59999;DHT22;45859;51.378;6.736;2023-02-01T00:31:30;6.30;99.90
59999;DHT22;45859;51.378;6.736;2023-02-01T00:33:56;6.30;99.90
59999;DHT22;45859;51.378;6.736;2023-02-01T00:36:22;6.30;99.90
59999;DHT22;45859;51.378;6.736;2023-02-01T00:38:48;6.30;99.90
59999;DHT22;45859;51.378;6.736;2023-02-01T00:41:18;6.40;99.90
59999;DHT22;45859;51.378;6.736;2023-02-01T00:43:45;6.40;99.90
59999;DHT22;45859;51.378;6.736;2023-02-01T00:46:13;6.50;99.90
59999;DHT22;45859;51.378;6.736;2023-02-01T00:48:39;6.50;99.90
59999;DHT22;45859;51.378;6.736;2023-02-01T00:51:07;6.60;99.90
59999;DHT22;45859;51.378;6.736;2023-02-01T00:53:34;6.60;99.90
59999;DHT22;45859;51.378;6.736;2023-02-01T00:56:00;6.70;99.90
59999;DHT22;45859;51.378;6.736;2023-02-01T00:58:26;6.70;99.90
59999;DHT22;45859;51.378;6.736;2023-02-01T01:03:39;6.50;99.90
59999;DHT22;45859;51.378;6.736;2023-02-01T01:06:10;6.50;99.90
59999;DHT22;45859;51.378;6.736;2023-02-01T01:08:37;6.50;99.90
59999;DHT22;45859;51.378;6.736;2023-02-01T01:11:12;6.50;99.90
59999;DHT22;45859;51.378;6.736;2023-02-01T01:13:38;6.40;99.90
59999;DHT22;45859;51.378;6.736;2023-02-01T01:16:05;6.40;99.90
59999;DHT22;45859;51.378;6.736;2023-02-01T01:18:32;6.40;99.90
59999;DHT22;45859;51.378;6.736;2023-02-01T01:20:59;6.40;99.90
59999;DHT22;45859;51.378;6.736;2023-02-01T01:23:25;6.40;99.90
59999;DHT22;45859;51.378;6.736;2023-02-01T01:25:52;6.30;99.90
59999;DHT22;45859;51.378;6.736;2023-02-01T01:28:17;6.30;99.90
59999;DHT22;45859;51.378;6.736;2023-02-01T01:30:43;6.30;99.90
59999;DHT22;45859;51.378;6.736;2023-02-01T01:33:09;6.20;99.90
59999;DHT22;45859;51.378;6.736;2023-02-01T01:35:35;6.20;99.90
59999;DHT22;45859;51.378;6.736;2023-02-01T01:38:01;6.10;99.90
59999;DHT22;45859;51.378;6.736;2023-02-01T01:40:28;6.20;99.90
59999;DHT22;45859;51.378;6.736;2023-02-01T01:42:55;6.10;99.90
59999;DHT22;45859;51.378;6.736;2023-02-01T01:45:27;6.10;99.90
59999;DHT22;45859;51.378;6.736;2023-02-01T01:48:04;6.10;99.90
59999;DHT22;45859;51.378;6.736;2023-02-01T01:50:39;6.10;99.90
59999;DHT22;45859;51.378;6.736;2023-02-01T01:53:08;6.00;99.90
59999;DHT22;45859;51.378;6.736;2023-02-01T01:55:39;6.10;99.90
59999;DHT22;45859;51.378;6.736;2023-02-01T01:58:12;6.10;99.90
59999;DHT22;45859;51.378;6.736;2023-02-01T02:00:39;6.10;99.90
59999;DHT22;45859;51.378;6.736;2023-02-01T02:03:19;6.10;99.90
59999;DHT22;45859;51.378;6.736;2023-02-01T02:05:47;6.00;99.90
59999;DHT22;45859;51.378;6.736;2023-02-01T02:08:14;6.00;99.90
59999;DHT22;45859;51.378;6.736;2023-02-01T02:10:39;5.90;99.90
59999;DHT22;45859;51.378;6.736;2023-02-01T02:13:24;6.00;99.90
59999;DHT22;45859;51.378;6.736;2023-02-01T02:21:52;5.70;99.90
59999;DHT22;45859;51.378;6.736;2023-02-01T02:24:32;5.60;99.90
59999;DHT22;45859;51.378;6.736;2023-02-01T02:36:01;5.40;99.90
59999;DHT22;45859;51.378;6.736;2023-02-01T02:41:19;5.30;99.90
59999;DHT22;45859;51.378;6.736;2023-02-01T02:44:20;5.30;99.90
59999;DHT22;45859;51.378;6.736;2023-02-01T02:47:13;5.30;99.90
59999;DHT22;45859;51.378;6.736;2023-02-01T02:53:12;5.20;99.90
59999;DHT22;45859;51.378;6.736;2023-02-01T02:55:59;5.20;99.90
59999;DHT22;45859;51.378;6.736;2023-02-01T02:58:45;5.10;99.90
59999;DHT22;45859;51.378;6.736;2023-02-01T03:01:30;5.10;99.90
59999;DHT22;45859;51.378;6.736;2023-02-01T03:04:15;5.10;99.90
59999;DHT22;45859;51.378;6.736;2023-02-01T03:06:43;5.10;99.90
59999;DHT22;45859;51.378;6.736;2023-02-01T03:09:27;5.10;99.90
59999;DHT22;45859;51.378;6.736;2023-02-01T03:12:02;5.20;99.90
59999;DHT22;45859;51.378;6.736;2023-02-01T03:14:50;5.30;99.90
59999;DHT22;45859;51.378;6.736;2023-02-01T03:17:27;5.20;99.90
59999;DHT22;45859;51.378;6.736;2023-02-01T03:19:57;5.20;99.90
59999;DHT22;45859;51.378;6.736;2023-02-01T03:22:27;5.30;99.90
59999;DHT22;45859;51.378;6.736;2023-02-01T03:25:04;5.30;99.90
59999;DHT22;45859;51.378;6.736;2023-02-01T03:27:38;5.40;99.90
59999;DHT22;45859;51.378;6.736;2023-02-01T03:32:35;5.50;99.90
59999;DHT22;45859;51.378;6.736;2023-02-01T03:35:28;5.50;99.90
59999;DHT22;45859;51.378;6.736;2023-02-01T03:37:59;5.50;99.90
59999;DHT22;45859;51.378;6.736;2023-02-01T03:40:27;5.50;99.90
59999;DHT22;45859;51.378;6.736;2023-02-01T03:42:59;5.60;99.90
59999;DHT22;45859;51.378;6.736;2023-02-01T03:45:31;5.60;99.90
59999;DHT22;45859;51.378;6.736;2023-02-01T03:48:00;5.60;99.90
59999;DHT22;45859;51.378;6.736;2023-02-01T03:50:29;5.60;99.90
59999;DHT22;45859;51.378;6.736;2023-02-01T03:53:16;5.60;99.90
59999;DHT22;45859;51.378;6.736;2023-02-01T03:55:43;5.60;99.90
59999;DHT22;45859;51.378;6.736;2023-02-01T03:58:18;5.60;99.90
59999;DHT22;45859;51.378;6.736;2023-02-01T04:00:58;5.60;99.90
59999;DHT22;45859;51.378;6.736;2023-02-01T04:03:26;5.60;99.90
59999;DHT22;45859;51.378;6.736;2023-02-01T04:05:52;5.60;99.90
59999;DHT22;45859;51.378;6.736;2023-02-01T04:08:20;5.60;99.90
59999;DHT22;45859;51.378;6.736;2023-02-01T04:10:46;5.60;99.90
59999;DHT22;45859;51.378;6.736;2023-02-01T04:13:12;5.50;99.90
59999;DHT22;45859;51.378;6.736;2023-02-01T04:15:38;5.50;99.90
59999;DHT22;45859;51.378;6.736;2023-02-01T04:18:04;5.50;99.90
59999;DHT22;45859;51.378;6.736;2023-02-01T04:20:30;5.50;99.90
59999;DHT22;45859;51.378;6.736;2023-02-01T04:22:55;5.40;99.90
59999;DHT22;45859;51.378;6.736;2023-02-01T04:25:21;5.30;99.90
59999;DHT22;45859;51.378;6.736;2023-02-01T04:27:47;5.30;99.90
59999;DHT22;45859;51.378;6.736;2023-02-01T04:30:13;5.20;99.90
59999;DHT22;45859;51.378;6.736;2023-02-01T04:32:39;5.20;99.90
59999;DHT22;45859;51.378;6.736;2023-02-01T04:35:06;5.20;99.90
59999;DHT22;45859;51.378;6.736;2023-02-01T04:37:33;5.30;99.90
59999;DHT22;45859;51.378;6.736;2023-02-01T04:39:58;5.30;99.90
59999;DHT22;45859;51.378;6.736;2023-02-01T04:42:24;5.20;99.90
59999;DHT22;45859;51.378;6.736;2023-02-01T04:44:50;5.20;99.90
59999;DHT22;45859;51.378;6.736;2023-02-01T04:47:16;5.20;99.90
59999;DHT22;45859;51.378;6.736;2023-02-01T04:49:42;5.30;99.90
59999;DHT22;45859;51.378;6.736;2023-02-01T04:52:07;5.40;99.90
59999;DHT22;45859;51.378;6.736;2023-02-01T04:54:33;5.50;99.90
59999;DHT22;45859;51.378;6.736;2023-02-01T04:56:59;5.50;99.90
59999;DHT22;45859;51.378;6.736;2023-02-01T04:59:25;5.50;99.90
59999;DHT22;45859;51.378;6.736;2023-02-01T05:01:51;5.50;99.90
59999;DHT22;45859;51.378;6.736;2023-02-01T05:04:16;5.50;99.90
59999;DHT22;45859;51.378;6.736;2023-02-01T05:06:44;5.40;99.90
59999;DHT22;45859;51.378;6.736;2023-02-01T05:09:10;5.40;99.90
59999;DHT22;45859;51.378;6.736;2023-02-01T05:11:35;5.30;99.90
59999;DHT22;45859;51.378;6.736;2023-02-01T05:14:20;5.30;99.90
59999;DHT22;45859;51.378;6.736;2023-02-01T05:16:46;5.30;99.90
59999;DHT22;45859;51.378;6.736;2023-02-01T05:19:11;5.30;99.90
59999;DHT22;45859;51.378;6.736;2023-02-01T05:21:37;5.30;99.90
59999;DHT22;45859;51.378;6.736;2023-02-01T05:24:03;5.30;99.90
59999;DHT22;45859;51.378;6.736;2023-02-01T05:26:36;5.20;99.90
59999;DHT22;45859;51.378;6.736;2023-02-01T05:29:03;5.20;99.90
59999;DHT22;45859;51.378;6.736;2023-02-01T05:31:28;5.20;99.90
59999;DHT22;45859;51.378;6.736;2023-02-01T05:33:54;5.10;99.90
59999;DHT22;45859;51.378;6.736;2023-02-01T05:36:20;5.10;99.90
59999;DHT22;45859;51.378;6.736;2023-02-01T05:38:46;5.00;99.90
59999;DHT22;45859;51.378;6.736;2023-02-01T05:41:12;5.00;99.90
59999;DHT22;45859;51.378;6.736;2023-02-01T05:43:37;5.00;99.90
59999;DHT22;45859;51.378;6.736;2023-02-01T05:46:03;5.00;99.90
59999;DHT22;45859;51.378;6.736;2023-02-01T05:48:29;4.90;99.90
59999;DHT22;45859;51.378;6.736;2023-02-01T05:50:54;4.90;99.90
59999;DHT22;45859;51.378;6.736;2023-02-01T05:53:20;5.00;99.90
59999;DHT22;45859;51.378;6.736;2023-02-01T05:55:46;4.90;99.90
59999;DHT22;45859;51.378;6.736;2023-02-01T05:58:12;4.90;99.90
59999;DHT22;45859;51.378;6.736;2023-02-01T06:00:38;4.90;99.90
59999;DHT22;45859;51.378;6.736;2023-02-01T06:03:04;4.60;99.90
59999;DHT22;45859;51.378;6.736;2023-02-01T06:05:30;4.80;99.90
59999;DHT22;45859;51.378;6.736;2023-02-01T06:07:55;4.80;99.90
59999;DHT22;45859;51.378;6.736;2023-02-01T06:10:21;4.70;99.90
59999;DHT22;45859;51.378;6.736;2023-02-01T06:12:47;4.80;99.90
59999;DHT22;45859;51.378;6.736;2023-02-01T06:15:13;4.90;99.90
59999;DHT22;45859;51.378;6.736;2023-02-01T06:17:41;5.00;99.90
59999;DHT22;45859;51.378;6.736;2023-02-01T06:20:09;5.10;99.90
59999;DHT22;45859;51.378;6.736;2023-02-01T06:22:35;5.20;99.90
59999;DHT22;45859;51.378;6.736;2023-02-01T06:25:02;5.30;99.90
59999;DHT22;45859;51.378;6.736;2023-02-01T06:27:28;5.40;99.90
59999;DHT22;45859;51.378;6.736;2023-02-01T06:29:54;5.50;99.90
59999;DHT22;45859;51.378;6.736;2023-02-01T06:32:20;5.50;99.90
59999;DHT22;45859;51.378;6.736;2023-02-01T06:34:46;5.50;99.90
59999;DHT22;45859;51.378;6.736;2023-02-01T06:37:12;5.50;99.90
59999;DHT22;45859;51.378;6.736;2023-02-01T06:39:38;5.60;99.90
59999;DHT22;45859;51.378;6.736;2023-02-01T06:42:03;5.60;99.90
59999;DHT22;45859;51.378;6.736;2023-02-01T06:44:29;5.60;99.90
59999;DHT22;45859;51.378;6.736;2023-02-01T06:46:55;5.60;99.90
59999;DHT22;45859;51.378;6.736;2023-02-01T06:49:21;5.70;99.90
59999;DHT22;45859;51.378;6.736;2023-02-01T06:51:47;5.70;99.90
59999;DHT22;45859;51.378;6.736;2023-02-01T06:54:13;5.70;99.90
59999;DHT22;45859;51.378;6.736;2023-02-01T06:56:39;5.70;99.90
59999;DHT22;45859;51.378;6.736;2023-02-01T06:59:05;5.70;99.90
59999;DHT22;45859;51.378;6.736;2023-02-01T07:01:31;5.70;99.90
59999;DHT22;45859;51.378;6.736;2023-02-01T07:03:57;5.80;99.90
59999;DHT22;45859;51.378;6.736;2023-02-01T07:06:23;5.80;99.90
59999;DHT22;45859;51.378;6.736;2023-02-01T07:08:49;5.80;99.90
59999;DHT22;45859;51.378;6.736;2023-02-01T07:11:16;5.90;99.90
59999;DHT22;45859;51.378;6.736;2023-02-01T07:13:42;5.80;99.90
59999;DHT22;45859;51.378;6.736;2023-02-01T07:16:12;5.90;99.90
59999;DHT22;45859;51.378;6.736;2023-02-01T07:18:37;5.90;99.90
59999;DHT22;45859;51.378;6.736;2023-02-01T07:21:03;5.90;99.90
59999;DHT22;45859;51.378;6.736;2023-02-01T07:23:29;5.90;99.90
59999;DHT22;45859;51.378;6.736;2023-02-01T07:25:57;5.90;99.90
59999;DHT22;45859;51.378;6.736;2023-02-01T07:28:23;6.00;99.90
59999;DHT22;45859;51.378;6.736;2023-02-01T07:30:49;6.00;99.90
59999;DHT22;45859;51.378;6.736;2023-02-01T07:33:18;6.00;99.90
59999;DHT22;45859;51.378;6.736;2023-02-01T07:35:45;6.00;99.90
59999;DHT22;45859;51.378;6.736;2023-02-01T07:38:10;6.00;99.90
59999;DHT22;45859;51.378;6.736;2023-02-01T07:40:36;6.10;99.90
59999;DHT22;45859;51.378;6.736;2023-02-01T07:43:02;6.10;99.90
59999;DHT22;45859;51.378;6.736;2023-02-01T07:45:27;6.20;99.90
59999;DHT22;45859;51.378;6.736;2023-02-01T07:47:53;6.20;99.90
59999;DHT22;45859;51.378;6.736;2023-02-01T07:50:19;6.20;99.90
59999;DHT22;45859;51.378;6.736;2023-02-01T07:52:45;6.20;99.90
59999;DHT22;45859;51.378;6.736;2023-02-01T07:55:10;6.20;99.90
59999;DHT22;45859;51.378;6.736;2023-02-01T07:57:36;6.20;99.90
59999;DHT22;45859;51.378;6.736;2023-02-01T08:00:03;6.20;99.90
59999;DHT22;45859;51.378;6.736;2023-02-01T08:02:47;6.20;99.90
59999;DHT22;45859;51.378;6.736;2023-02-01T08:05:13;6.30;99.90
59999;DHT22;45859;51.378;6.736;2023-02-01T08:07:38;6.30;99.90
59999;DHT22;45859;51.378;6.736;2023-02-01T08:10:04;6.20;99.90
59999;DHT22;45859;51.378;6.736;2023-02-01T08:12:36;6.20;99.90
59999;DHT22;45859;51.378;6.736;2023-02-01T08:15:02;6.20;99.90
59999;DHT22;45859;51.378;6.736;2023-02-01T08:17:28;6.30;99.90
59999;DHT22;45859;51.378;6.736;2023-02-01T08:19:54;6.20;99.90
59999;DHT22;45859;51.378;6.736;2023-02-01T08:22:20;6.30;99.90
59999;DHT22;45859;51.378;6.736;2023-02-01T08:24:49;6.20;99.90
59999;DHT22;45859;51.378;6.736;2023-02-01T08:27:14;6.30;99.90
59999;DHT22;45859;51.378;6.736;2023-02-01T08:29:40;6.30;99.90
59999;DHT22;45859;51.378;6.736;2023-02-01T08:32:06;6.30;99.90
59999;DHT22;45859;51.378;6.736;2023-02-01T08:34:32;6.40;99.90
59999;DHT22;45859;51.378;6.736;2023-02-01T08:36:57;6.40;99.90
59999;DHT22;45859;51.378;6.736;2023-02-01T08:39:24;6.40;99.90
59999;DHT22;45859;51.378;6.736;2023-02-01T08:41:50;6.40;99.90
59999;DHT22;45859;51.378;6.736;2023-02-01T08:44:34;6.40;99.90
59999;DHT22;45859;51.378;6.736;2023-02-01T08:47:00;6.40;99.90
59999;DHT22;45859;51.378;6.736;2023-02-01T08:49:26;5.50;99.90
59999;DHT22;45859;51.378;6.736;2023-02-01T08:51:52;6.50;99.90
59999;DHT22;45859;51.378;6.736;2023-02-01T08:54:17;6.50;99.90
59999;DHT22;45859;51.378;6.736;2023-02-01T08:56:43;6.60;99.90
59999;DHT22;45859;51.378;6.736;2023-02-01T08:59:09;6.60;99.90
59999;DHT22;45859;51.378;6.736;2023-02-01T09:01:34;6.60;99.90
59999;DHT22;45859;51.378;6.736;2023-02-01T09:04:00;6.60;99.90
59999;DHT22;45859;51.378;6.736;2023-02-01T09:06:26;6.70;99.90
59999;DHT22;45859;51.378;6.736;2023-02-01T09:08:51;6.70;99.90
59999;DHT22;45859;51.378;6.736;2023-02-01T09:11:18;6.70;99.90
59999;DHT22;45859;51.378;6.736;2023-02-01T09:13:45;6.70;99.90
59999;DHT22;45859;51.378;6.736;2023-02-01T09:16:11;6.70;99.90
59999;DHT22;45859;51.378;6.736;2023-02-01T09:18:36;6.60;99.90
59999;DHT22;45859;51.378;6.736;2023-02-01T09:21:06;6.60;99.90
59999;DHT22;45859;51.378;6.736;2023-02-01T09:23:32;6.50;99.90
59999;DHT22;45859;51.378;6.736;2023-02-01T09:26:03;6.40;99.90
59999;DHT22;45859;51.378;6.736;2023-02-01T09:28:29;6.50;99.90
59999;DHT22;45859;51.378;6.736;2023-02-01T09:30:59;6.50;99.90
59999;DHT22;45859;51.378;6.736;2023-02-01T09:33:26;6.60;99.90
59999;DHT22;45859;51.378;6.736;2023-02-01T09:36:00;6.70;99.90
59999;DHT22;45859;51.378;6.736;2023-02-01T09:38:26;6.80;99.90
59999;DHT22;45859;51.378;6.736;2023-02-01T09:40:53;6.90;99.90
59999;DHT22;45859;51.378;6.736;2023-02-01T09:43:38;6.90;99.90
59999;DHT22;45859;51.378;6.736;2023-02-01T09:46:27;7.00;99.90
59999;DHT22;45859;51.378;6.736;2023-02-01T09:48:59;6.90;99.90
59999;DHT22;45859;51.378;6.736;2023-02-01T09:51:38;6.90;99.90
59999;DHT22;45859;51.378;6.736;2023-02-01T09:54:12;6.90;99.90
59999;DHT22;45859;51.378;6.736;2023-02-01T09:57:06;7.00;99.90
59999;DHT22;45859;51.378;6.736;2023-02-01T09:59:42;7.00;99.90
59999;DHT22;45859;51.378;6.736;2023-02-01T10:02:24;7.20;99.90
59999;DHT22;45859;51.378;6.736;2023-02-01T10:04:54;7.20;99.90
59999;DHT22;45859;51.378;6.736;2023-02-01T10:26:45;7.70;99.90
59999;DHT22;45859;51.378;6.736;2023-02-01T10:29:19;7.80;99.90
59999;DHT22;45859;51.378;6.736;2023-02-01T10:31:46;8.00;99.90
59999;DHT22;45859;51.378;6.736;2023-02-01T10:34:19;8.10;99.90
59999;DHT22;45859;51.378;6.736;2023-02-01T10:36:54;8.00;99.90
59999;DHT22;45859;51.378;6.736;2023-02-01T10:39:20;8.00;99.90
59999;DHT22;45859;51.378;6.736;2023-02-01T10:41:47;7.90;99.90
59999;DHT22;45859;51.378;6.736;2023-02-01T10:44:16;7.80;99.90
59999;DHT22;45859;51.378;6.736;2023-02-01T10:46:43;7.70;99.90
59999;DHT22;45859;51.378;6.736;2023-02-01T10:49:17;7.70;99.90
59999;DHT22;45859;51.378;6.736;2023-02-01T10:51:50;7.70;99.90
59999;DHT22;45859;51.378;6.736;2023-02-01T10:54:20;7.70;99.90
59999;DHT22;45859;51.378;6.736;2023-02-01T10:56:48;7.80;99.90
59999;DHT22;45859;51.378;6.736;2023-02-01T10:59:21;7.80;99.90
59999;DHT22;45859;51.378;6.736;2023-02-01T11:01:49;7.90;99.90
59999;DHT22;45859;51.378;6.736;2023-02-01T11:04:20;7.90;99.90
59999;DHT22;45859;51.378;6.736;2023-02-01T11:06:52;8.00;99.90
59999;DHT22;45859;51.378;6.736;2023-02-01T11:09:23;8.10;99.90
59999;DHT22;45859;51.378;6.736;2023-02-01T11:14:19;8.10;99.90
59999;DHT22;45859;51.378;6.736;2023-02-01T11:20:16;8.40;99.90
59999;DHT22;45859;51.378;6.736;2023-02-01T11:22:53;8.40;99.90
59999;DHT22;45859;51.378;6.736;2023-02-01T11:25:20;8.50;99.90
59999;DHT22;45859;51.378;6.736;2023-02-01T11:27:48;8.40;99.90
59999;DHT22;45859;51.378;6.736;2023-02-01T11:30:17;8.30;99.90
59999;DHT22;45859;51.378;6.736;2023-02-01T11:32:46;8.20;99.90
59999;DHT22;45859;51.378;6.736;2023-02-01T11:35:17;8.20;99.90
59999;DHT22;45859;51.378;6.736;2023-02-01T11:37:52;8.20;99.90
59999;DHT22;45859;51.378;6.736;2023-02-01T11:43:12;8.20;99.90
59999;DHT22;45859;51.378;6.736;2023-02-01T11:45:39;8.20;99.90
59999;DHT22;45859;51.378;6.736;2023-02-01T11:48:10;8.20;99.90
59999;DHT22;45859;51.378;6.736;2023-02-01T11:50:56;8.20;99.90
59999;DHT22;45859;51.378;6.736;2023-02-01T11:53:32;8.10;99.90
59999;DHT22;45859;51.378;6.736;2023-02-01T11:56:55;8.00;99.90
59999;DHT22;45859;51.378;6.736;2023-02-01T12:12:52;8.00;99.90
59999;DHT22;45859;51.378;6.736;2023-02-01T12:15:30;8.00;99.90
59999;DHT22;45859;51.378;6.736;2023-02-01T12:29:29;8.00;99.90
59999;DHT22;45859;51.378;6.736;2023-02-01T12:43:32;7.90;99.90
59999;DHT22;45859;51.378;6.736;2023-02-01T12:46:03;8.00;99.90
59999;DHT22;45859;51.378;6.736;2023-02-01T12:48:38;7.90;99.90
59999;DHT22;45859;51.378;6.736;2023-02-01T12:51:26;8.00;99.90
59999;DHT22;45859;51.378;6.736;2023-02-01T12:56:35;6.00;99.90
59999;DHT22;45859;51.378;6.736;2023-02-01T12:59:05;8.00;99.90
59999;DHT22;45859;51.378;6.736;2023-02-01T13:04:25;8.00;99.90
59999;DHT22;45859;51.378;6.736;2023-02-01T13:06:57;8.00;99.90
59999;DHT22;45859;51.378;6.736;2023-02-01T13:12:29;8.00;99.90
59999;DHT22;45859;51.378;6.736;2023-02-01T13:15:05;8.00;99.90
59999;DHT22;45859;51.378;6.736;2023-02-01T13:17:35;7.90;99.90
59999;DHT22;45859;51.378;6.736;2023-02-01T13:23:26;7.80;99.90
59999;DHT22;45859;51.378;6.736;2023-02-01T13:25:54;7.80;99.90
59999;DHT22;45859;51.378;6.736;2023-02-01T13:36:22;7.90;99.90
59999;DHT22;45859;51.378;6.736;2023-02-01T13:41:59;7.90;99.90
59999;DHT22;45859;51.378;6.736;2023-02-01T13:44:38;7.90;99.90
59999;DHT22;45859;51.378;6.736;2023-02-01T13:47:22;7.90;99.90
59999;DHT22;45859;51.378;6.736;2023-02-01T13:49:50;8.00;99.90
59999;DHT22;45859;51.378;6.736;2023-02-01T13:52:37;8.10;99.90
59999;DHT22;45859;51.378;6.736;2023-02-01T13:55:28;8.10;99.90
59999;DHT22;45859;51.378;6.736;2023-02-01T14:00:41;8.30;99.90
59999;DHT22;45859;51.378;6.736;2023-02-01T14:03:11;8.40;99.90
59999;DHT22;45859;51.378;6.736;2023-02-01T14:10:57;8.40;99.90
59999;DHT22;45859;51.378;6.736;2023-02-01T14:31:44;8.40;99.90
59999;DHT22;45859;51.378;6.736;2023-02-01T14:34:18;8.40;99.90
59999;DHT22;45859;51.378;6.736;2023-02-01T14:37:07;8.30;99.90
59999;DHT22;45859;51.378;6.736;2023-02-01T14:44:53;8.40;99.90
59999;DHT22;45859;51.378;6.736;2023-02-01T14:49:57;8.40;99.90
59999;DHT22;45859;51.378;6.736;2023-02-01T14:52:34;8.40;99.90
59999;DHT22;45859;51.378;6.736;2023-02-01T14:55:04;8.40;99.90
59999;DHT22;45859;51.378;6.736;2023-02-01T14:57:33;8.30;99.90
59999;DHT22;45859;51.378;6.736;2023-02-01T15:05:38;8.30;99.90
59999;DHT22;45859;51.378;6.736;2023-02-01T15:08:16;8.30;99.90
59999;DHT22;45859;51.378;6.736;2023-02-01T15:10:47;8.30;99.90
59999;DHT22;45859;51.378;6.736;2023-02-01T15:13:23;8.30;99.90
59999;DHT22;45859;51.378;6.736;2023-02-01T15:16:14;8.30;99.90
59999;DHT22;45859;51.378;6.736;2023-02-01T15:18:41;8.30;99.90
59999;DHT22;45859;51.378;6.736;2023-02-01T15:21:16;8.30;99.90
59999;DHT22;45859;51.378;6.736;2023-02-01T15:23:42;8.30;99.90
59999;DHT22;45859;51.378;6.736;2023-02-01T15:26:07;8.30;99.90
59999;DHT22;45859;51.378;6.736;2023-02-01T15:28:33;8.30;99.90
59999;DHT22;45859;51.378;6.736;2023-02-01T15:31:04;8.40;99.90
59999;DHT22;45859;51.378;6.736;2023-02-01T15:33:31;8.40;99.90
59999;DHT22;45859;51.378;6.736;2023-02-01T15:41:29;8.30;99.90
59999;DHT22;45859;51.378;6.736;2023-02-01T15:46:36;8.30;99.90
59999;DHT22;45859;51.378;6.736;2023-02-01T15:49:02;8.20;99.90
59999;DHT22;45859;51.378;6.736;2023-02-01T15:51:31;8.20;99.90
59999;DHT22;45859;51.378;6.736;2023-02-01T15:54:05;8.20;99.90
59999;DHT22;45859;51.378;6.736;2023-02-01T15:56:37;8.20;99.90
59999;DHT22;45859;51.378;6.736;2023-02-01T15:59:25;8.20;99.90
59999;DHT22;45859;51.378;6.736;2023-02-01T16:01:53;8.20;99.90
59999;DHT22;45859;51.378;6.736;2023-02-01T16:04:22;8.20;99.90
59999;DHT22;45859;51.378;6.736;2023-02-01T16:09:16;8.20;99.90
59999;DHT22;45859;51.378;6.736;2023-02-01T16:11:52;8.10;99.90
59999;DHT22;45859;51.378;6.736;2023-02-01T16:14:19;8.20;99.90
59999;DHT22;45859;51.378;6.736;2023-02-01T16:16:45;8.20;99.90
59999;DHT22;45859;51.378;6.736;2023-02-01T16:19:10;8.20;99.90
59999;DHT22;45859;51.378;6.736;2023-02-01T16:21:36;8.10;99.90
59999;DHT22;45859;51.378;6.736;2023-02-01T16:24:02;8.10;99.90
59999;DHT22;45859;51.378;6.736;2023-02-01T16:26:33;8.10;99.90
59999;DHT22;45859;51.378;6.736;2023-02-01T16:28:59;8.10;99.90
59999;DHT22;45859;51.378;6.736;2023-02-01T16:31:30;8.10;99.90
59999;DHT22;45859;51.378;6.736;2023-02-01T16:33:56;8.10;99.90
59999;DHT22;45859;51.378;6.736;2023-02-01T16:36:24;8.00;99.90
59999;DHT22;45859;51.378;6.736;2023-02-01T16:38:49;8.00;99.90
59999;DHT22;45859;51.378;6.736;2023-02-01T16:41:17;8.00;99.90
59999;DHT22;45859;51.378;6.736;2023-02-01T16:43:43;8.00;99.90
59999;DHT22;45859;51.378;6.736;2023-02-01T16:46:18;8.00;99.90
59999;DHT22;45859;51.378;6.736;2023-02-01T16:48:56;8.00;99.90
59999;DHT22;45859;51.378;6.736;2023-02-01T16:51:23;8.00;99.90
59999;DHT22;45859;51.378;6.736;2023-02-01T16:53:50;8.00;99.90
59999;DHT22;45859;51.378;6.736;2023-02-01T16:58:46;8.10;99.90
59999;DHT22;45859;51.378;6.736;2023-02-01T17:01:14;8.10;99.90
59999;DHT22;45859;51.378;6.736;2023-02-01T17:03:40;8.10;99.90
59999;DHT22;45859;51.378;6.736;2023-02-01T17:06:08;8.00;99.90
59999;DHT22;45859;51.378;6.736;2023-02-01T17:08:36;8.00;99.90
59999;DHT22;45859;51.378;6.736;2023-02-01T17:11:05;8.00;99.90
59999;DHT22;45859;51.378;6.736;2023-02-01T17:13:32;8.00;99.90
59999;DHT22;45859;51.378;6.736;2023-02-01T17:16:27;8.00;99.90
59999;DHT22;45859;51.378;6.736;2023-02-01T17:21:19;8.00;99.90
59999;DHT22;45859;51.378;6.736;2023-02-01T17:23:45;8.00;99.90
59999;DHT22;45859;51.378;6.736;2023-02-01T17:26:11;8.00;99.90
59999;DHT22;45859;51.378;6.736;2023-02-01T17:28:37;8.00;99.90
59999;DHT22;45859;51.378;6.736;2023-02-01T17:31:03;8.00;99.90
59999;DHT22;45859;51.378;6.736;2023-02-01T17:33:35;8.00;99.90
59999;DHT22;45859;51.378;6.736;2023-02-01T17:36:02;8.00;99.90
59999;DHT22;45859;51.378;6.736;2023-02-01T17:38:28;8.00;99.90
59999;DHT22;45859;51.378;6.736;2023-02-01T17:40:53;8.00;99.90
59999;DHT22;45859;51.378;6.736;2023-02-01T17:43:24;8.00;99.90
59999;DHT22;45859;51.378;6.736;2023-02-01T17:48:37;8.00;99.90
59999;DHT22;45859;51.378;6.736;2023-02-01T17:51:03;8.00;99.90
59999;DHT22;45859;51.378;6.736;2023-02-01T17:53:30;8.00;99.90
59999;DHT22;45859;51.378;6.736;2023-02-01T17:55:55;8.00;99.90
59999;DHT22;45859;51.378;6.736;2023-02-01T17:58:24;7.90;99.90
59999;DHT22;45859;51.378;6.736;2023-02-01T18:00:54;7.90;99.90
59999;DHT22;45859;51.378;6.736;2023-02-01T18:03:26;7.80;99.90
59999;DHT22;45859;51.378;6.736;2023-02-01T18:05:53;7.80;99.90
59999;DHT22;45859;51.378;6.736;2023-02-01T18:08:27;7.80;99.90
59999;DHT22;45859;51.378;6.736;2023-02-01T18:10:56;7.90;99.90
59999;DHT22;45859;51.378;6.736;2023-02-01T18:13:26;7.90;99.90
59999;DHT22;45859;51.378;6.736;2023-02-01T18:15:52;7.90;99.90
59999;DHT22;45859;51.378;6.736;2023-02-01T18:18:17;7.80;99.90
59999;DHT22;45859;51.378;6.736;2023-02-01T18:20:44;7.80;99.90
59999;DHT22;45859;51.378;6.736;2023-02-01T18:23:28;7.80;99.90
59999;DHT22;45859;51.378;6.736;2023-02-01T18:25:55;7.80;99.90
59999;DHT22;45859;51.378;6.736;2023-02-01T18:28:20;7.70;99.90
59999;DHT22;45859;51.378;6.736;2023-02-01T18:30:48;7.80;99.90
59999;DHT22;45859;51.378;6.736;2023-02-01T18:33:17;7.90;99.90
59999;DHT22;45859;51.378;6.736;2023-02-01T18:35:43;7.80;99.90
59999;DHT22;45859;51.378;6.736;2023-02-01T18:38:09;7.80;99.90
59999;DHT22;45859;51.378;6.736;2023-02-01T18:43:13;7.90;99.90
59999;DHT22;45859;51.378;6.736;2023-02-01T18:45:40;7.90;99.90
59999;DHT22;45859;51.378;6.736;2023-02-01T18:48:08;7.90;99.90
59999;DHT22;45859;51.378;6.736;2023-02-01T18:50:38;7.90;99.90
59999;DHT22;45859;51.378;6.736;2023-02-01T18:53:07;7.90;99.90
59999;DHT22;45859;51.378;6.736;2023-02-01T18:55:34;7.80;99.90